sensor_id;sensor_type;location;lat;lon;timestamp;temperature;humidity
1383;DHT22;685;47.196;11.880;2023-03-11T00:01:00;6.30;99.90
1383;DHT22;685;47.196;11.880;2023-03-11T00:03:27;6.50;99.90
1383;DHT22;685;47.196;11.880;2023-03-11T00:05:55;6.60;99.90
1383;DHT22;685;47.196;11.880;2023-03-11T00:08:24;5.90;99.90
1383;DHT22;685;47.196;11.880;2023-03-11T00:10:53;6.00;99.90
1383;DHT22;685;47.196;11.880;2023-03-11T00:13:20;6.20;99.90
1383;DHT22;685;47.196;11.880;2023-03-11T00:15:51;6.30;99.90
1383;DHT22;685;47.196;11.880;2023-03-11T00:18:20;6.50;99.90
1383;DHT22;685;47.196;11.880;2023-03-11T00:20:52;6.40;99.90
1383;DHT22;685;47.196;11.880;2023-03-11T00:23:19;6.60;99.90
1383;DHT22;685;47.196;11.880;2023-03-11T00:25:46;6.60;99.90
1383;DHT22;685;47.196;11.880;2023-03-11T00:28:14;6.80;99.90
1383;DHT22;685;47.196;11.880;2023-03-11T00:30:42;6.70;99.90
1383;DHT22;685;47.196;11.880;2023-03-11T00:33:12;6.30;99.90
1383;DHT22;685;47.196;11.880;2023-03-11T00:35:39;6.30;99.90
1383;DHT22;685;47.196;11.880;2023-03-11T00:38:10;6.30;99.90
1383;DHT22;685;47.196;11.880;2023-03-11T00:40:38;6.00;99.90
1383;DHT22;685;47.196;11.880;2023-03-11T00:43:05;6.00;99.90
1383;DHT22;685;47.196;11.880;2023-03-11T00:45:32;6.00;99.90
1383;DHT22;685;47.196;11.880;2023-03-11T00:47:59;6.00;99.90
1383;DHT22;685;47.196;11.880;2023-03-11T00:50:29;5.90;99.90
1383;DHT22;685;47.196;11.880;2023-03-11T00:52:57;5.90;99.90
1383;DHT22;685;47.196;11.880;2023-03-11T00:55:32;6.00;99.90
1383;DHT22;685;47.196;11.880;2023-03-11T00:58:01;5.90;99.90
1383;DHT22;685;47.196;11.880;2023-03-11T01:00:29;5.90;99.90
1383;DHT22;685;47.196;11.880;2023-03-11T01:02:57;5.80;99.90
1383;DHT22;685;47.196;11.880;2023-03-11T01:05:28;5.80;99.90
1383;DHT22;685;47.196;11.880;2023-03-11T01:07:55;5.80;99.90
1383;DHT22;685;47.196;11.880;2023-03-11T01:10:22;5.80;99.90
1383;DHT22;685;47.196;11.880;2023-03-11T01:12:49;5.90;99.90
1383;DHT22;685;47.196;11.880;2023-03-11T01:15:19;5.90;99.90
1383;DHT22;685;47.196;11.880;2023-03-11T01:17:46;5.90;99.90
1383;DHT22;685;47.196;11.880;2023-03-11T01:20:13;5.80;99.90
1383;DHT22;685;47.196;11.880;2023-03-11T01:22:42;5.80;99.90
1383;DHT22;685;47.196;11.880;2023-03-11T01:25:10;5.80;99.90
1383;DHT22;685;47.196;11.880;2023-03-11T01:27:38;5.70;99.90
1383;DHT22;685;47.196;11.880;2023-03-11T01:30:06;5.70;99.90
1383;DHT22;685;47.196;11.880;2023-03-11T01:32:33;5.70;99.90
1383;DHT22;685;47.196;11.880;2023-03-11T01:35:00;5.70;99.90
1383;DHT22;685;47.196;11.880;2023-03-11T01:37:27;5.70;99.90
1383;DHT22;685;47.196;11.880;2023-03-11T01:39:55;5.70;99.90
1383;DHT22;685;47.196;11.880;2023-03-11T01:42:22;5.50;99.90
1383;DHT22;685;47.196;11.880;2023-03-11T01:44:49;5.60;99.90
1383;DHT22;685;47.196;11.880;2023-03-11T01:47:37;5.70;99.90
1383;DHT22;685;47.196;11.880;2023-03-11T01:50:07;5.80;99.90
1383;DHT22;685;47.196;11.880;2023-03-11T01:52:36;5.70;99.90
1383;DHT22;685;47.196;11.880;2023-03-11T01:55:06;5.60;99.90
1383;DHT22;685;47.196;11.880;2023-03-11T01:57:34;5.90;99.90
1383;DHT22;685;47.196;11.880;2023-03-11T02:00:03;5.80;99.90
1383;DHT22;685;47.196;11.880;2023-03-11T02:02:35;5.60;99.90
1383;DHT22;685;47.196;11.880;2023-03-11T02:05:06;5.60;99.90
1383;DHT22;685;47.196;11.880;2023-03-11T02:07:33;5.50;99.90
1383;DHT22;685;47.196;11.880;2023-03-11T02:10:00;5.60;99.90
1383;DHT22;685;47.196;11.880;2023-03-11T02:12:30;5.50;99.90
1383;DHT22;685;47.196;11.880;2023-03-11T02:14:59;5.50;99.90
1383;DHT22;685;47.196;11.880;2023-03-11T02:17:29;5.30;99.90
1383;DHT22;685;47.196;11.880;2023-03-11T02:20:07;5.20;99.90
1383;DHT22;685;47.196;11.880;2023-03-11T02:22:39;5.10;99.90
1383;DHT22;685;47.196;11.880;2023-03-11T02:25:13;5.00;99.90
1383;DHT22;685;47.196;11.880;2023-03-11T02:27:47;5.00;99.90
1383;DHT22;685;47.196;11.880;2023-03-11T02:30:15;5.00;99.90
1383;DHT22;685;47.196;11.880;2023-03-11T02:32:44;4.80;99.90
1383;DHT22;685;47.196;11.880;2023-03-11T02:35:13;4.80;99.90
1383;DHT22;685;47.196;11.880;2023-03-11T02:37:44;4.80;99.90
1383;DHT22;685;47.196;11.880;2023-03-11T02:40:34;4.70;99.90
1383;DHT22;685;47.196;11.880;2023-03-11T02:43:05;4.60;99.90
1383;DHT22;685;47.196;11.880;2023-03-11T02:45:33;4.40;99.90
1383;DHT22;685;47.196;11.880;2023-03-11T02:48:02;4.40;99.90
1383;DHT22;685;47.196;11.880;2023-03-11T02:50:29;4.30;99.90
1383;DHT22;685;47.196;11.880;2023-03-11T02:52:59;4.30;99.90
1383;DHT22;685;47.196;11.880;2023-03-11T02:55:26;4.20;99.90
1383;DHT22;685;47.196;11.880;2023-03-11T02:57:52;4.20;99.90
1383;DHT22;685;47.196;11.880;2023-03-11T03:00:21;4.20;99.90
1383;DHT22;685;47.196;11.880;2023-03-11T03:02:48;4.20;99.90
1383;DHT22;685;47.196;11.880;2023-03-11T03:05:17;4.10;99.90
1383;DHT22;685;47.196;11.880;2023-03-11T03:07:45;4.10;99.90
1383;DHT22;685;47.196;11.880;2023-03-11T03:10:13;4.10;99.90
1383;DHT22;685;47.196;11.880;2023-03-11T03:12:40;4.20;99.90
1383;DHT22;685;47.196;11.880;2023-03-11T03:15:08;4.20;99.90
1383;DHT22;685;47.196;11.880;2023-03-11T03:17:37;4.30;99.90
1383;DHT22;685;47.196;11.880;2023-03-11T03:20:06;4.40;99.90
1383;DHT22;685;47.196;11.880;2023-03-11T03:22:36;4.40;99.90
1383;DHT22;685;47.196;11.880;2023-03-11T03:25:04;4.30;99.90
1383;DHT22;685;47.196;11.880;2023-03-11T03:27:32;4.20;99.90
1383;DHT22;685;47.196;11.880;2023-03-11T03:29:59;4.20;99.90
1383;DHT22;685;47.196;11.880;2023-03-11T03:32:26;4.20;99.90
1383;DHT22;685;47.196;11.880;2023-03-11T03:34:54;4.10;99.90
1383;DHT22;685;47.196;11.880;2023-03-11T03:37:24;4.00;99.90
1383;DHT22;685;47.196;11.880;2023-03-11T03:39:51;4.10;99.90
1383;DHT22;685;47.196;11.880;2023-03-11T03:42:18;4.00;99.90
1383;DHT22;685;47.196;11.880;2023-03-11T03:44:45;4.00;99.90
1383;DHT22;685;47.196;11.880;2023-03-11T03:47:12;4.00;99.90
1383;DHT22;685;47.196;11.880;2023-03-11T03:49:39;4.00;99.90
1383;DHT22;685;47.196;11.880;2023-03-11T03:52:07;3.80;99.90
1383;DHT22;685;47.196;11.880;2023-03-11T03:54:35;3.80;99.90
1383;DHT22;685;47.196;11.880;2023-03-11T03:57:02;3.80;99.90
1383;DHT22;685;47.196;11.880;2023-03-11T03:59:29;3.80;99.90
1383;DHT22;685;47.196;11.880;2023-03-11T04:01:56;3.80;99.90
1383;DHT22;685;47.196;11.880;2023-03-11T04:04:23;3.80;99.90
1383;DHT22;685;47.196;11.880;2023-03-11T04:06:50;3.80;99.90
1383;DHT22;685;47.196;11.880;2023-03-11T04:09:18;3.90;99.90
1383;DHT22;685;47.196;11.880;2023-03-11T04:11:45;3.70;99.90
1383;DHT22;685;47.196;11.880;2023-03-11T04:14:12;3.80;99.90
1383;DHT22;685;47.196;11.880;2023-03-11T04:16:39;3.70;99.90
1383;DHT22;685;47.196;11.880;2023-03-11T04:19:06;3.80;99.90
1383;DHT22;685;47.196;11.880;2023-03-11T04:21:33;3.90;99.90
1383;DHT22;685;47.196;11.880;2023-03-11T04:24:00;3.80;99.90
1383;DHT22;685;47.196;11.880;2023-03-11T04:26:28;3.70;99.90
1383;DHT22;685;47.196;11.880;2023-03-11T04:28:55;3.70;99.90
1383;DHT22;685;47.196;11.880;2023-03-11T04:31:22;3.70;99.90
1383;DHT22;685;47.196;11.880;2023-03-11T04:33:49;3.70;99.90
1383;DHT22;685;47.196;11.880;2023-03-11T04:36:16;3.70;99.90
1383;DHT22;685;47.196;11.880;2023-03-11T04:38:43;3.70;99.90
1383;DHT22;685;47.196;11.880;2023-03-11T04:41:11;3.60;99.90
1383;DHT22;685;47.196;11.880;2023-03-11T04:43:39;3.60;99.90
1383;DHT22;685;47.196;11.880;2023-03-11T04:46:06;3.60;99.90
1383;DHT22;685;47.196;11.880;2023-03-11T04:48:33;3.80;99.90
1383;DHT22;685;47.196;11.880;2023-03-11T04:51:00;4.00;99.90
1383;DHT22;685;47.196;11.880;2023-03-11T04:53:27;4.00;99.90
1383;DHT22;685;47.196;11.880;2023-03-11T04:55:54;4.00;99.90
1383;DHT22;685;47.196;11.880;2023-03-11T04:58:21;4.20;99.90
1383;DHT22;685;47.196;11.880;2023-03-11T05:00:49;4.30;99.90
1383;DHT22;685;47.196;11.880;2023-03-11T05:03:17;4.30;99.90
1383;DHT22;685;47.196;11.880;2023-03-11T05:05:44;4.20;99.90
1383;DHT22;685;47.196;11.880;2023-03-11T05:08:11;4.20;99.90
1383;DHT22;685;47.196;11.880;2023-03-11T05:10:39;4.30;99.90
1383;DHT22;685;47.196;11.880;2023-03-11T05:13:06;4.40;99.90
1383;DHT22;685;47.196;11.880;2023-03-11T05:15:33;4.20;99.90
1383;DHT22;685;47.196;11.880;2023-03-11T05:18:02;4.20;99.90
1383;DHT22;685;47.196;11.880;2023-03-11T05:20:29;3.90;99.90
1383;DHT22;685;47.196;11.880;2023-03-11T05:22:57;4.00;99.90
1383;DHT22;685;47.196;11.880;2023-03-11T05:25:24;3.80;99.90
1383;DHT22;685;47.196;11.880;2023-03-11T05:27:51;4.20;99.90
1383;DHT22;685;47.196;11.880;2023-03-11T05:30:18;4.10;99.90
1383;DHT22;685;47.196;11.880;2023-03-11T05:32:45;4.10;99.90
1383;DHT22;685;47.196;11.880;2023-03-11T05:35:13;4.20;99.90
1383;DHT22;685;47.196;11.880;2023-03-11T05:37:40;3.70;99.90
1383;DHT22;685;47.196;11.880;2023-03-11T05:40:10;4.00;99.90
1383;DHT22;685;47.196;11.880;2023-03-11T05:42:37;4.10;99.90
1383;DHT22;685;47.196;11.880;2023-03-11T05:45:05;3.90;99.90
1383;DHT22;685;47.196;11.880;2023-03-11T05:47:32;3.80;99.90
1383;DHT22;685;47.196;11.880;2023-03-11T05:49:59;4.10;99.90
1383;DHT22;685;47.196;11.880;2023-03-11T05:52:27;4.10;99.90
1383;DHT22;685;47.196;11.880;2023-03-11T05:54:55;4.10;99.90
1383;DHT22;685;47.196;11.880;2023-03-11T05:57:22;4.10;99.90
1383;DHT22;685;47.196;11.880;2023-03-11T05:59:48;4.10;99.90
1383;DHT22;685;47.196;11.880;2023-03-11T06:02:15;4.20;99.90
1383;DHT22;685;47.196;11.880;2023-03-11T06:04:42;3.90;99.90
1383;DHT22;685;47.196;11.880;2023-03-11T06:07:09;4.20;99.90
1383;DHT22;685;47.196;11.880;2023-03-11T06:09:38;4.30;99.90
1383;DHT22;685;47.196;11.880;2023-03-11T06:12:05;4.30;99.90
1383;DHT22;685;47.196;11.880;2023-03-11T06:14:32;3.80;99.90
1383;DHT22;685;47.196;11.880;2023-03-11T06:16:59;3.80;99.90
1383;DHT22;685;47.196;11.880;2023-03-11T06:19:26;4.00;99.90
1383;DHT22;685;47.196;11.880;2023-03-11T06:21:53;4.10;99.90
1383;DHT22;685;47.196;11.880;2023-03-11T06:24:20;4.20;99.90
1383;DHT22;685;47.196;11.880;2023-03-11T06:26:51;4.30;99.90
1383;DHT22;685;47.196;11.880;2023-03-11T06:29:18;4.40;99.90
1383;DHT22;685;47.196;11.880;2023-03-11T06:31:46;4.50;99.90
1383;DHT22;685;47.196;11.880;2023-03-11T06:34:13;4.50;99.90
1383;DHT22;685;47.196;11.880;2023-03-11T06:36:40;4.50;99.90
1383;DHT22;685;47.196;11.880;2023-03-11T06:39:07;4.50;99.90
1383;DHT22;685;47.196;11.880;2023-03-11T06:41:34;4.40;99.90
1383;DHT22;685;47.196;11.880;2023-03-11T06:44:02;4.50;99.90
1383;DHT22;685;47.196;11.880;2023-03-11T06:46:29;4.40;99.90
1383;DHT22;685;47.196;11.880;2023-03-11T06:48:56;4.30;99.90
1383;DHT22;685;47.196;11.880;2023-03-11T06:51:23;4.40;99.90
1383;DHT22;685;47.196;11.880;2023-03-11T06:53:51;4.30;99.90
1383;DHT22;685;47.196;11.880;2023-03-11T06:56:19;4.30;99.90
1383;DHT22;685;47.196;11.880;2023-03-11T06:58:46;4.50;99.90
1383;DHT22;685;47.196;11.880;2023-03-11T07:01:17;4.50;99.90
1383;DHT22;685;47.196;11.880;2023-03-11T07:03:45;4.60;99.90
1383;DHT22;685;47.196;11.880;2023-03-11T07:06:13;4.40;99.90
1383;DHT22;685;47.196;11.880;2023-03-11T07:08:41;4.40;99.90
1383;DHT22;685;47.196;11.880;2023-03-11T07:11:09;4.40;99.90
1383;DHT22;685;47.196;11.880;2023-03-11T07:13:38;4.00;99.90
1383;DHT22;685;47.196;11.880;2023-03-11T07:16:06;4.30;99.90
1383;DHT22;685;47.196;11.880;2023-03-11T07:18:35;4.40;99.90
1383;DHT22;685;47.196;11.880;2023-03-11T07:21:04;3.80;99.90
1383;DHT22;685;47.196;11.880;2023-03-11T07:23:31;4.10;99.90
1383;DHT22;685;47.196;11.880;2023-03-11T07:25:58;4.10;99.90
1383;DHT22;685;47.196;11.880;2023-03-11T07:28:27;4.00;99.90
1383;DHT22;685;47.196;11.880;2023-03-11T07:30:54;4.10;99.90
1383;DHT22;685;47.196;11.880;2023-03-11T07:33:21;4.30;99.90
1383;DHT22;685;47.196;11.880;2023-03-11T07:35:50;4.20;99.90
1383;DHT22;685;47.196;11.880;2023-03-11T07:38:18;4.30;99.90
1383;DHT22;685;47.196;11.880;2023-03-11T07:40:45;4.40;99.90
1383;DHT22;685;47.196;11.880;2023-03-11T07:43:12;4.50;99.90
1383;DHT22;685;47.196;11.880;2023-03-11T07:45:39;4.40;99.90
1383;DHT22;685;47.196;11.880;2023-03-11T07:48:06;4.40;99.90
1383;DHT22;685;47.196;11.880;2023-03-11T07:50:33;4.50;99.90
1383;DHT22;685;47.196;11.880;2023-03-11T07:53:01;4.40;99.90
1383;DHT22;685;47.196;11.880;2023-03-11T07:55:28;4.40;99.90
1383;DHT22;685;47.196;11.880;2023-03-11T07:57:55;4.50;99.90
1383;DHT22;685;47.196;11.880;2023-03-11T08:00:22;4.40;99.90
1383;DHT22;685;47.196;11.880;2023-03-11T08:02:49;4.50;99.90
1383;DHT22;685;47.196;11.880;2023-03-11T08:05:16;4.50;99.90
1383;DHT22;685;47.196;11.880;2023-03-11T08:07:45;4.50;99.90
1383;DHT22;685;47.196;11.880;2023-03-11T08:10:13;4.40;99.90
1383;DHT22;685;47.196;11.880;2023-03-11T08:12:40;4.40;99.90
1383;DHT22;685;47.196;11.880;2023-03-11T08:15:08;4.00;99.90
1383;DHT22;685;47.196;11.880;2023-03-11T08:17:35;4.30;99.90
1383;DHT22;685;47.196;11.880;2023-03-11T08:20:02;4.30;99.90
1383;DHT22;685;47.196;11.880;2023-03-11T08:22:33;4.40;99.90
1383;DHT22;685;47.196;11.880;2023-03-11T08:25:00;4.50;99.90
1383;DHT22;685;47.196;11.880;2023-03-11T08:27:28;4.50;99.90
1383;DHT22;685;47.196;11.880;2023-03-11T08:29:55;4.50;99.90
1383;DHT22;685;47.196;11.880;2023-03-11T08:32:22;4.50;99.90
1383;DHT22;685;47.196;11.880;2023-03-11T08:34:49;4.30;99.90
1383;DHT22;685;47.196;11.880;2023-03-11T08:37:16;4.30;99.90
1383;DHT22;685;47.196;11.880;2023-03-11T08:39:42;4.20;99.90
1383;DHT22;685;47.196;11.880;2023-03-11T08:42:09;4.10;99.90
1383;DHT22;685;47.196;11.880;2023-03-11T08:44:38;4.20;99.90
1383;DHT22;685;47.196;11.880;2023-03-11T08:47:05;4.50;99.90
1383;DHT22;685;47.196;11.880;2023-03-11T08:49:32;4.40;99.90
1383;DHT22;685;47.196;11.880;2023-03-11T08:52:00;4.50;99.90
1383;DHT22;685;47.196;11.880;2023-03-11T08:54:27;4.50;99.90
1383;DHT22;685;47.196;11.880;2023-03-11T08:56:54;4.60;99.90
1383;DHT22;685;47.196;11.880;2023-03-11T08:59:21;4.60;99.90
1383;DHT22;685;47.196;11.880;2023-03-11T09:01:49;4.60;99.90
1383;DHT22;685;47.196;11.880;2023-03-11T09:04:16;4.50;99.90
1383;DHT22;685;47.196;11.880;2023-03-11T09:06:43;4.50;99.90
1383;DHT22;685;47.196;11.880;2023-03-11T09:09:10;4.50;99.90
1383;DHT22;685;47.196;11.880;2023-03-11T09:11:37;4.50;99.90
1383;DHT22;685;47.196;11.880;2023-03-11T09:14:05;4.40;99.90
1383;DHT22;685;47.196;11.880;2023-03-11T09:16:32;4.30;99.90
1383;DHT22;685;47.196;11.880;2023-03-11T09:19:00;4.50;99.90
1383;DHT22;685;47.196;11.880;2023-03-11T09:21:31;4.50;99.90
1383;DHT22;685;47.196;11.880;2023-03-11T09:23:58;4.40;99.90
1383;DHT22;685;47.196;11.880;2023-03-11T09:26:25;4.50;99.90
1383;DHT22;685;47.196;11.880;2023-03-11T09:28:52;4.50;99.90
1383;DHT22;685;47.196;11.880;2023-03-11T09:31:19;4.50;99.90
1383;DHT22;685;47.196;11.880;2023-03-11T09:33:46;4.70;99.90
1383;DHT22;685;47.196;11.880;2023-03-11T09:36:17;4.40;99.90
1383;DHT22;685;47.196;11.880;2023-03-11T09:38:45;4.60;99.90
1383;DHT22;685;47.196;11.880;2023-03-11T09:41:20;4.60;99.90
1383;DHT22;685;47.196;11.880;2023-03-11T09:44:00;4.80;99.90
1383;DHT22;685;47.196;11.880;2023-03-11T09:49:42;4.90;99.90
1383;DHT22;685;47.196;11.880;2023-03-11T09:52:15;4.90;99.90
1383;DHT22;685;47.196;11.880;2023-03-11T09:54:44;4.80;99.90
1383;DHT22;685;47.196;11.880;2023-03-11T09:57:16;4.70;99.90
1383;DHT22;685;47.196;11.880;2023-03-11T09:59:44;4.90;99.90
1383;DHT22;685;47.196;11.880;2023-03-11T10:02:15;4.90;99.90
1383;DHT22;685;47.196;11.880;2023-03-11T10:04:50;5.00;99.90
1383;DHT22;685;47.196;11.880;2023-03-11T10:07:24;5.10;99.90
1383;DHT22;685;47.196;11.880;2023-03-11T10:09:55;5.00;99.90
1383;DHT22;685;47.196;11.880;2023-03-11T10:12:33;4.80;99.90
1383;DHT22;685;47.196;11.880;2023-03-11T10:15:11;5.00;99.90
1383;DHT22;685;47.196;11.880;2023-03-11T10:17:49;4.70;99.90
1383;DHT22;685;47.196;11.880;2023-03-11T10:20:21;5.00;99.90
1383;DHT22;685;47.196;11.880;2023-03-11T10:23:01;5.20;99.90
1383;DHT22;685;47.196;11.880;2023-03-11T10:25:40;5.10;99.90
1383;DHT22;685;47.196;11.880;2023-03-11T10:28:12;5.30;99.90
1383;DHT22;685;47.196;11.880;2023-03-11T10:30:43;5.10;99.90
1383;DHT22;685;47.196;11.880;2023-03-11T10:33:20;5.20;99.90
1383;DHT22;685;47.196;11.880;2023-03-11T10:35:50;5.30;99.90
1383;DHT22;685;47.196;11.880;2023-03-11T10:38:22;5.40;99.90
1383;DHT22;685;47.196;11.880;2023-03-11T10:40:50;5.30;99.90
1383;DHT22;685;47.196;11.880;2023-03-11T10:43:26;5.40;99.90
1383;DHT22;685;47.196;11.880;2023-03-11T10:45:54;5.10;99.90
1383;DHT22;685;47.196;11.880;2023-03-11T10:48:23;5.40;99.90
1383;DHT22;685;47.196;11.880;2023-03-11T10:50:56;5.40;99.90
1383;DHT22;685;47.196;11.880;2023-03-11T10:53:28;5.60;99.90
1383;DHT22;685;47.196;11.880;2023-03-11T10:55:57;5.70;99.90
1383;DHT22;685;47.196;11.880;2023-03-11T10:58:26;5.60;99.90
1383;DHT22;685;47.196;11.880;2023-03-11T11:01:02;5.70;99.90
1383;DHT22;685;47.196;11.880;2023-03-11T11:03:30;5.70;99.90
1383;DHT22;685;47.196;11.880;2023-03-11T11:06:00;5.70;99.90
1383;DHT22;685;47.196;11.880;2023-03-11T11:08:29;5.70;99.90
1383;DHT22;685;47.196;11.880;2023-03-11T11:10:58;5.90;99.90
1383;DHT22;685;47.196;11.880;2023-03-11T11:13:26;6.10;99.90
1383;DHT22;685;47.196;11.880;2023-03-11T11:15:57;6.10;99.90
1383;DHT22;685;47.196;11.880;2023-03-11T11:18:26;6.20;99.90
1383;DHT22;685;47.196;11.880;2023-03-11T11:20:57;6.30;99.90
1383;DHT22;685;47.196;11.880;2023-03-11T11:23:31;6.50;99.90
1383;DHT22;685;47.196;11.880;2023-03-11T11:25:59;6.60;99.90
1383;DHT22;685;47.196;11.880;2023-03-11T11:28:28;6.40;99.90
1383;DHT22;685;47.196;11.880;2023-03-11T11:30:56;6.70;99.90
1383;DHT22;685;47.196;11.880;2023-03-11T11:33:26;6.70;99.90
1383;DHT22;685;47.196;11.880;2023-03-11T11:35:56;6.70;99.90
1383;DHT22;685;47.196;11.880;2023-03-11T11:38:24;6.90;99.90
1383;DHT22;685;47.196;11.880;2023-03-11T11:40:55;6.90;99.90
1383;DHT22;685;47.196;11.880;2023-03-11T11:43:32;7.00;99.90
1383;DHT22;685;47.196;11.880;2023-03-11T11:46:05;6.90;99.90
1383;DHT22;685;47.196;11.880;2023-03-11T11:48:39;7.00;99.90
1383;DHT22;685;47.196;11.880;2023-03-11T11:51:20;7.10;99.90
1383;DHT22;685;47.196;11.880;2023-03-11T11:53:51;7.00;99.90
1383;DHT22;685;47.196;11.880;2023-03-11T11:56:24;7.10;99.90
1383;DHT22;685;47.196;11.880;2023-03-11T11:58:51;6.90;99.90
1383;DHT22;685;47.196;11.880;2023-03-11T12:01:25;7.00;99.90
1383;DHT22;685;47.196;11.880;2023-03-11T12:04:28;7.20;99.90
1383;DHT22;685;47.196;11.880;2023-03-11T12:07:09;7.10;99.90
1383;DHT22;685;47.196;11.880;2023-03-11T12:09:48;7.30;99.90
1383;DHT22;685;47.196;11.880;2023-03-11T12:12:24;7.40;99.90
1383;DHT22;685;47.196;11.880;2023-03-11T12:14:59;7.40;99.90
1383;DHT22;685;47.196;11.880;2023-03-11T12:17:29;7.30;99.90
1383;DHT22;685;47.196;11.880;2023-03-11T12:20:00;7.40;99.90
1383;DHT22;685;47.196;11.880;2023-03-11T12:23:08;7.40;99.90
1383;DHT22;685;47.196;11.880;2023-03-11T12:25:41;7.30;99.90
1383;DHT22;685;47.196;11.880;2023-03-11T12:28:20;7.20;99.90
1383;DHT22;685;47.196;11.880;2023-03-11T12:30:51;6.90;99.90
1383;DHT22;685;47.196;11.880;2023-03-11T12:33:26;6.50;99.90
1383;DHT22;685;47.196;11.880;2023-03-11T12:35:57;6.50;99.90
1383;DHT22;685;47.196;11.880;2023-03-11T12:38:29;6.60;99.90
1383;DHT22;685;47.196;11.880;2023-03-11T12:41:26;6.80;99.90
1383;DHT22;685;47.196;11.880;2023-03-11T12:44:04;7.00;99.90
1383;DHT22;685;47.196;11.880;2023-03-11T12:47:22;6.70;99.90
1383;DHT22;685;47.196;11.880;2023-03-11T12:49:51;6.90;99.90
1383;DHT22;685;47.196;11.880;2023-03-11T12:52:24;6.80;99.90
1383;DHT22;685;47.196;11.880;2023-03-11T12:55:24;6.90;99.90
1383;DHT22;685;47.196;11.880;2023-03-11T12:58:00;6.80;99.90
1383;DHT22;685;47.196;11.880;2023-03-11T13:00:44;6.60;99.90
1383;DHT22;685;47.196;11.880;2023-03-11T13:06:47;6.90;99.90
1383;DHT22;685;47.196;11.880;2023-03-11T13:09:20;6.70;99.90
1383;DHT22;685;47.196;11.880;2023-03-11T13:11:47;6.20;99.90
1383;DHT22;685;47.196;11.880;2023-03-11T13:14:30;6.60;99.90
1383;DHT22;685;47.196;11.880;2023-03-11T13:17:23;6.60;99.90
1383;DHT22;685;47.196;11.880;2023-03-11T13:19:52;7.00;99.90
1383;DHT22;685;47.196;11.880;2023-03-11T13:22:42;6.90;99.90
1383;DHT22;685;47.196;11.880;2023-03-11T13:25:27;7.20;99.90
1383;DHT22;685;47.196;11.880;2023-03-11T13:28:00;6.70;99.90
1383;DHT22;685;47.196;11.880;2023-03-11T13:30:34;7.20;99.90
1383;DHT22;685;47.196;11.880;2023-03-11T13:33:19;7.10;99.90
1383;DHT22;685;47.196;11.880;2023-03-11T13:36:00;7.00;99.90
1383;DHT22;685;47.196;11.880;2023-03-11T13:38:42;6.60;99.90
1383;DHT22;685;47.196;11.880;2023-03-11T13:41:14;6.80;99.90
1383;DHT22;685;47.196;11.880;2023-03-11T13:43:44;6.40;99.90
1383;DHT22;685;47.196;11.880;2023-03-11T13:46:15;6.40;99.90
1383;DHT22;685;47.196;11.880;2023-03-11T13:48:47;6.30;99.90
1383;DHT22;685;47.196;11.880;2023-03-11T13:51:20;6.50;99.90
1383;DHT22;685;47.196;11.880;2023-03-11T13:53:53;6.20;99.90
1383;DHT22;685;47.196;11.880;2023-03-11T13:56:25;6.00;99.90
1383;DHT22;685;47.196;11.880;2023-03-11T13:58:52;6.40;99.90
1383;DHT22;685;47.196;11.880;2023-03-11T14:01:19;6.40;99.90
1383;DHT22;685;47.196;11.880;2023-03-11T14:03:48;6.10;99.90
1383;DHT22;685;47.196;11.880;2023-03-11T14:06:16;6.10;99.90
1383;DHT22;685;47.196;11.880;2023-03-11T14:08:52;6.00;99.90
1383;DHT22;685;47.196;11.880;2023-03-11T14:11:19;6.10;99.90
1383;DHT22;685;47.196;11.880;2023-03-11T14:13:51;6.20;99.90
1383;DHT22;685;47.196;11.880;2023-03-11T14:16:20;5.70;99.90
1383;DHT22;685;47.196;11.880;2023-03-11T14:19:01;5.70;99.90
1383;DHT22;685;47.196;11.880;2023-03-11T14:21:28;5.70;99.90
1383;DHT22;685;47.196;11.880;2023-03-11T14:23:56;5.70;99.90
1383;DHT22;685;47.196;11.880;2023-03-11T14:26:27;5.60;99.90
1383;DHT22;685;47.196;11.880;2023-03-11T14:28:57;5.60;99.90
1383;DHT22;685;47.196;11.880;2023-03-11T14:31:29;5.50;99.90
1383;DHT22;685;47.196;11.880;2023-03-11T14:34:00;5.40;99.90
1383;DHT22;685;47.196;11.880;2023-03-11T14:36:39;5.40;99.90
1383;DHT22;685;47.196;11.880;2023-03-11T14:39:28;5.40;99.90
1383;DHT22;685;47.196;11.880;2023-03-11T14:41:58;5.50;99.90
1383;DHT22;685;47.196;11.880;2023-03-11T14:44:30;5.50;99.90
1383;DHT22;685;47.196;11.880;2023-03-11T14:47:04;5.40;99.90
1383;DHT22;685;47.196;11.880;2023-03-11T14:49:34;5.50;99.90
1383;DHT22;685;47.196;11.880;2023-03-11T14:52:07;5.40;99.90
1383;DHT22;685;47.196;11.880;2023-03-11T14:54:35;5.50;99.90
1383;DHT22;685;47.196;11.880;2023-03-11T14:57:05;5.50;99.90
1383;DHT22;685;47.196;11.880;2023-03-11T14:59:33;5.40;99.90
1383;DHT22;685;47.196;11.880;2023-03-11T15:02:21;5.50;99.90
1383;DHT22;685;47.196;11.880;2023-03-11T15:04:55;5.40;99.90
1383;DHT22;685;47.196;11.880;2023-03-11T15:07:22;5.40;99.90
1383;DHT22;685;47.196;11.880;2023-03-11T15:09:49;5.60;99.90
1383;DHT22;685;47.196;11.880;2023-03-11T15:12:32;5.60;99.90
1383;DHT22;685;47.196;11.880;2023-03-11T15:14:59;5.90;99.90
1383;DHT22;685;47.196;11.880;2023-03-11T15:17:27;5.60;99.90
1383;DHT22;685;47.196;11.880;2023-03-11T15:19:56;5.60;99.90
1383;DHT22;685;47.196;11.880;2023-03-11T15:22:25;5.90;99.90
1383;DHT22;685;47.196;11.880;2023-03-11T15:24:55;5.70;99.90
1383;DHT22;685;47.196;11.880;2023-03-11T15:27:28;5.70;99.90
1383;DHT22;685;47.196;11.880;2023-03-11T15:29:57;5.50;99.90
1383;DHT22;685;47.196;11.880;2023-03-11T15:32:34;5.50;99.90
1383;DHT22;685;47.196;11.880;2023-03-11T15:35:13;5.50;99.90
1383;DHT22;685;47.196;11.880;2023-03-11T15:37:41;5.50;99.90
1383;DHT22;685;47.196;11.880;2023-03-11T15:40:18;5.50;99.90
1383;DHT22;685;47.196;11.880;2023-03-11T15:42:46;5.60;99.90
1383;DHT22;685;47.196;11.880;2023-03-11T15:45:15;5.50;99.90
1383;DHT22;685;47.196;11.880;2023-03-11T15:47:42;5.60;99.90
1383;DHT22;685;47.196;11.880;2023-03-11T15:50:21;5.60;99.90
1383;DHT22;685;47.196;11.880;2023-03-11T15:52:49;5.70;99.90
1383;DHT22;685;47.196;11.880;2023-03-11T15:55:16;5.70;99.90
1383;DHT22;685;47.196;11.880;2023-03-11T15:57:44;5.70;99.90
1383;DHT22;685;47.196;11.880;2023-03-11T16:00:17;5.90;99.90
1383;DHT22;685;47.196;11.880;2023-03-11T16:02:44;5.80;99.90
1383;DHT22;685;47.196;11.880;2023-03-11T16:05:13;5.80;99.90
1383;DHT22;685;47.196;11.880;2023-03-11T16:07:41;5.50;99.90
1383;DHT22;685;47.196;11.880;2023-03-11T16:10:09;5.50;99.90
1383;DHT22;685;47.196;11.880;2023-03-11T16:12:36;5.70;99.90
1383;DHT22;685;47.196;11.880;2023-03-11T16:15:04;5.70;99.90
1383;DHT22;685;47.196;11.880;2023-03-11T16:17:31;5.70;99.90
1383;DHT22;685;47.196;11.880;2023-03-11T16:19:58;5.70;99.90
1383;DHT22;685;47.196;11.880;2023-03-11T16:22:30;5.50;99.90
1383;DHT22;685;47.196;11.880;2023-03-11T16:25:00;5.30;99.90
1383;DHT22;685;47.196;11.880;2023-03-11T16:27:28;5.20;99.90
1383;DHT22;685;47.196;11.880;2023-03-11T16:29:55;4.80;99.90
1383;DHT22;685;47.196;11.880;2023-03-11T16:32:22;4.90;99.90
1383;DHT22;685;47.196;11.880;2023-03-11T16:34:49;4.90;99.90
1383;DHT22;685;47.196;11.880;2023-03-11T16:37:17;4.90;99.90
1383;DHT22;685;47.196;11.880;2023-03-11T16:39:46;4.90;99.90
1383;DHT22;685;47.196;11.880;2023-03-11T16:42:20;4.80;99.90